createdAt,value
2019-05-13T00:03:05.988Z,28.50
2019-05-13T00:05:37.065Z,28.50
2019-05-13T00:08:07.878Z,28.50
2019-05-13T00:10:39.205Z,28.50
2019-05-13T00:13:09.860Z,28.50
2019-05-13T00:15:40.648Z,28.50
2019-05-13T00:18:11.499Z,28.60
2019-05-13T00:20:44.364Z,28.60
2019-05-13T00:23:14.939Z,28.70
2019-05-13T00:25:45.746Z,28.70
2019-05-13T00:28:16.937Z,28.70
2019-05-13T00:30:47.945Z,28.80
2019-05-13T00:33:18.867Z,28.80
2019-05-13T00:35:49.834Z,28.90
2019-05-13T00:38:20.703Z,29.00
2019-05-13T00:40:51.456Z,29.00
2019-05-13T00:43:24.360Z,29.10
2019-05-13T00:45:54.535Z,29.10
2019-05-13T00:48:27.049Z,29.20
2019-05-13T00:50:58.351Z,29.30
2019-05-13T00:53:29.301Z,29.30
2019-05-13T00:56:00.062Z,29.40
2019-05-13T00:58:33.555Z,29.40
2019-05-13T01:01:13.800Z,29.60
2019-05-13T01:03:44.193Z,29.60
2019-05-13T01:06:15.144Z,29.70
2019-05-13T01:08:46.051Z,29.80
2019-05-13T01:11:17.098Z,29.80
2019-05-13T01:13:48.067Z,29.90
2019-05-13T01:16:19.684Z,29.90
2019-05-13T01:18:50.862Z,30.00
2019-05-13T01:21:23.920Z,30.10
2019-05-13T01:23:54.319Z,30.10
2019-05-13T01:26:25.464Z,30.10
2019-05-13T01:28:56.264Z,30.20
2019-05-13T01:31:27.033Z,30.20
2019-05-13T01:33:57.907Z,30.20
2019-05-13T01:36:28.943Z,30.20
2019-05-13T01:39:05.502Z,30.20
2019-05-13T01:41:36.726Z,30.20
2019-05-13T01:44:07.718Z,30.20
2019-05-13T01:46:38.593Z,30.30
2019-05-13T01:49:10.197Z,30.30
2019-05-13T01:51:43.848Z,30.30
2019-05-13T01:54:14.231Z,30.40
2019-05-13T01:56:45.989Z,30.50
2019-05-13T01:59:16.870Z,30.60
2019-05-13T02:01:48.032Z,30.70
2019-05-13T02:04:19.051Z,30.80
2019-05-13T02:06:50.006Z,30.90
2019-05-13T02:09:21.065Z,30.90
2019-05-13T02:11:53.836Z,30.90
2019-05-13T02:14:24.745Z,30.80
2019-05-13T02:16:55.757Z,30.90
2019-05-13T02:19:26.746Z,30.90
2019-05-13T02:22:03.698Z,30.90
2019-05-13T02:24:34.278Z,30.90
2019-05-13T02:27:06.065Z,31.00
2019-05-13T02:29:39.061Z,31.00
2019-05-13T02:32:13.292Z,31.00
2019-05-13T02:34:46.472Z,31.10
2019-05-13T02:37:17.635Z,31.10
2019-05-13T02:39:48.532Z,31.20
2019-05-13T02:42:22.865Z,31.20
2019-05-13T02:44:54.102Z,31.20
2019-05-13T02:47:24.914Z,31.30
2019-05-13T02:49:55.733Z,31.40
2019-05-13T02:52:26.546Z,31.40
2019-05-13T02:54:57.545Z,31.40
2019-05-13T02:57:28.309Z,31.40
2019-05-13T02:59:59.195Z,31.50
2019-05-13T03:02:32.660Z,31.50
2019-05-13T03:05:03.194Z,31.50
2019-05-13T03:07:35.468Z,31.50
2019-05-13T03:10:08.189Z,31.50
2019-05-13T03:12:41.567Z,31.60
2019-05-13T03:15:13.547Z,31.60
2019-05-13T03:17:46.112Z,31.70
2019-05-13T03:20:17.065Z,31.70
2019-05-13T03:22:47.638Z,31.70
2019-05-13T03:25:22.239Z,31.80
2019-05-13T03:27:54.004Z,31.80
2019-05-13T03:30:25.970Z,31.80
2019-05-13T03:33:02.269Z,31.80
2019-05-13T03:35:28.684Z,31.80
2019-05-13T03:38:03.093Z,31.80
2019-05-13T03:40:42.513Z,31.80
2019-05-13T03:43:14.308Z,31.80
2019-05-13T03:45:47.383Z,31.80
2019-05-13T03:48:23.653Z,31.80
2019-05-13T03:50:54.098Z,31.80
2019-05-13T03:53:25.082Z,31.80
2019-05-13T03:55:56.523Z,31.70
2019-05-13T03:58:28.103Z,31.70
2019-05-13T04:01:02.475Z,31.70
2019-05-13T04:03:33.183Z,31.60
2019-05-13T04:06:04.067Z,31.60
2019-05-13T04:08:35.266Z,31.50
2019-05-13T04:11:06.029Z,31.50
2019-05-13T04:13:36.865Z,31.50
2019-05-13T04:16:07.885Z,31.60
2019-05-13T04:18:42.514Z,31.70
2019-05-13T04:21:13.294Z,31.80
2019-05-13T04:23:44.407Z,31.90
2019-05-13T04:26:15.428Z,32.00
2019-05-13T04:28:46.343Z,32.10
2019-05-13T04:31:17.413Z,32.10
2019-05-13T04:33:48.532Z,32.10
2019-05-13T04:36:23.017Z,32.10
2019-05-13T04:38:52.853Z,32.20
2019-05-13T04:41:24.252Z,32.30
2019-05-13T04:43:55.486Z,32.40
2019-05-13T04:46:26.969Z,32.40
2019-05-13T04:49:01.993Z,32.50
2019-05-13T04:51:32.932Z,32.60
2019-05-13T04:54:08.579Z,32.80
2019-05-13T04:56:41.976Z,32.90
2019-05-13T04:59:12.517Z,33.00
2019-05-13T05:01:52.171Z,33.10
2019-05-13T05:04:27.646Z,33.20
2019-05-13T05:06:55.729Z,33.20
2019-05-13T05:09:28.913Z,33.20
2019-05-13T05:12:02.293Z,33.30
2019-05-13T05:14:35.716Z,33.40
2019-05-13T05:17:12.317Z,33.50
2019-05-13T05:19:47.342Z,33.60
2019-05-13T05:22:18.601Z,33.70
2019-05-13T05:24:52.128Z,33.80
2019-05-13T05:27:25.571Z,33.80
2019-05-13T05:30:03.989Z,33.80
2019-05-13T05:32:38.307Z,33.80
2019-05-13T05:35:11.910Z,33.80
2019-05-13T05:37:45.195Z,33.60
2019-05-13T05:40:28.028Z,33.40
2019-05-13T05:42:55.754Z,33.30
2019-05-13T05:45:27.693Z,33.20
2019-05-13T05:48:03.167Z,33.00
2019-05-13T05:50:37.466Z,32.90
2019-05-13T05:53:11.099Z,32.80
2019-05-13T05:55:43.547Z,32.80
2019-05-13T05:58:15.215Z,32.70
2019-05-13T06:00:54.984Z,32.60
2019-05-13T06:03:28.616Z,32.60
2019-05-13T06:06:01.797Z,32.60
2019-05-13T06:08:32.489Z,32.60
2019-05-13T06:11:04.474Z,32.60
2019-05-13T06:13:35.757Z,32.70
2019-05-13T06:16:14.562Z,32.80
2019-05-13T06:18:45.723Z,32.80
2019-05-13T06:21:16.904Z,32.90
2019-05-13T06:23:47.980Z,32.90
2019-05-13T06:26:23.353Z,33.00
2019-05-13T06:28:52.072Z,33.00
2019-05-13T06:31:23.251Z,33.10
2019-05-13T06:33:54.568Z,33.20
2019-05-13T06:36:27.636Z,33.30
2019-05-13T06:39:02.014Z,33.40
2019-05-13T06:41:32.361Z,33.40
2019-05-13T06:44:04.142Z,33.40
2019-05-13T06:46:35.030Z,33.40
2019-05-13T06:49:05.864Z,33.40
2019-05-13T06:51:36.802Z,33.40
2019-05-13T06:54:07.911Z,33.50
2019-05-13T06:56:38.934Z,33.50
2019-05-13T06:59:11.716Z,33.40
2019-05-13T07:01:42.493Z,33.40
2019-05-13T07:04:14.195Z,33.40
2019-05-13T07:06:45.287Z,33.40
2019-05-13T07:09:17.118Z,33.30
2019-05-13T07:11:48.352Z,33.30
2019-05-13T07:14:21.703Z,33.20
2019-05-13T07:19:42.476Z,33.20
2019-05-13T07:22:14.113Z,33.10
2019-05-13T07:24:45.386Z,33.00
2019-05-13T07:27:16.160Z,33.00
2019-05-13T07:29:47.055Z,33.00
2019-05-13T07:32:18.183Z,33.00
2019-05-13T07:34:52.817Z,33.10
2019-05-13T07:37:22.208Z,33.20
2019-05-13T07:39:54.457Z,33.30
2019-05-13T07:42:25.304Z,33.40
2019-05-13T07:44:56.190Z,33.40
2019-05-13T07:47:27.782Z,33.40
2019-05-13T07:49:58.526Z,33.40
2019-05-13T07:52:31.943Z,33.40
2019-05-13T07:55:02.465Z,33.40
2019-05-13T07:57:33.283Z,33.30
2019-05-13T08:00:05.421Z,33.20
2019-05-13T08:02:36.687Z,33.10
2019-05-13T08:05:12.092Z,33.00
2019-05-13T08:07:42.417Z,32.90
2019-05-13T08:10:14.363Z,32.80
2019-05-13T08:12:45.143Z,32.70
2019-05-13T08:15:16.295Z,32.60
2019-05-13T08:17:48.089Z,32.50
2019-05-13T08:20:21.791Z,32.40
2019-05-13T08:22:52.125Z,32.40
2019-05-13T08:25:23.148Z,32.40
2019-05-13T08:27:54.288Z,32.30
2019-05-13T08:30:27.185Z,32.30
2019-05-13T08:32:58.186Z,32.20
2019-05-13T08:35:31.329Z,32.10
2019-05-13T08:38:01.511Z,32.00
2019-05-13T08:40:32.446Z,31.90
2019-05-13T08:43:06.481Z,31.80
2019-05-13T08:45:35.727Z,31.60
2019-05-13T08:48:06.716Z,31.50
2019-05-13T08:50:37.270Z,31.30
2019-05-13T08:53:08.553Z,31.10
2019-05-13T08:55:42.168Z,31.00
2019-05-13T08:58:12.645Z,30.80
2019-05-13T09:00:46.050Z,30.60
2019-05-13T09:03:17.089Z,30.40
2019-05-13T09:05:48.376Z,30.30
2019-05-13T09:08:22.189Z,30.20
2019-05-13T09:10:54.378Z,30.10
2019-05-13T09:13:25.618Z,30.10
2019-05-13T09:15:56.464Z,30.00
2019-05-13T09:18:27.283Z,30.00
2019-05-13T09:20:58.481Z,30.00
2019-05-13T09:23:41.287Z,29.90
2019-05-13T09:26:11.922Z,29.80
2019-05-13T09:28:42.955Z,29.70
2019-05-13T09:31:13.924Z,29.50
2019-05-13T09:33:45.044Z,29.40
2019-05-13T09:36:16.311Z,29.30
2019-05-13T09:38:47.584Z,29.10
2019-05-13T09:41:18.398Z,29.00
2019-05-13T09:43:51.230Z,28.90
2019-05-13T09:46:22.588Z,28.70
2019-05-13T09:49:11.512Z,28.50
2019-05-13T09:51:26.661Z,28.30
2019-05-13T09:54:01.321Z,28.20
2019-05-13T09:56:32.554Z,28.00
2019-05-13T09:59:04.456Z,28.00
2019-05-13T10:01:35.434Z,27.80
2019-05-13T10:04:06.440Z,27.80
2019-05-13T10:06:37.788Z,27.80
2019-05-13T10:09:12.234Z,27.80
2019-05-13T10:11:42.786Z,27.80
2019-05-13T10:14:13.514Z,27.90
2019-05-13T10:16:44.458Z,27.90
2019-05-13T10:19:15.801Z,27.90
2019-05-13T10:21:46.870Z,27.90
2019-05-13T10:24:17.909Z,27.90
2019-05-13T10:26:51.352Z,27.80
2019-05-13T10:29:22.266Z,27.70
2019-05-13T10:31:54.196Z,27.60
2019-05-13T10:34:25.427Z,27.60
2019-05-13T10:36:56.651Z,27.60
2019-05-13T10:39:27.534Z,27.50
2019-05-13T10:41:58.134Z,27.60
2019-05-13T10:44:28.977Z,27.50
2019-05-13T10:47:02.000Z,27.50
2019-05-13T10:49:33.130Z,27.50
2019-05-13T10:52:06.678Z,27.60
2019-05-13T10:54:37.602Z,27.60
2019-05-13T10:57:13.360Z,27.70
2019-05-13T10:59:40.900Z,27.70
2019-05-13T11:02:13.316Z,27.80
2019-05-13T11:04:44.690Z,27.80
2019-05-13T11:07:15.532Z,27.80
2019-05-13T11:09:46.192Z,27.90
2019-05-13T11:12:17.147Z,27.90
2019-05-13T11:14:51.523Z,27.90
2019-05-13T11:17:23.184Z,28.00
2019-05-13T11:19:51.936Z,28.00
2019-05-13T11:22:22.748Z,28.00
2019-05-13T11:24:53.551Z,28.10
2019-05-13T11:27:24.338Z,28.10
2019-05-13T11:29:55.182Z,28.10
2019-05-13T11:32:25.985Z,28.10
2019-05-13T11:34:57.454Z,28.10
2019-05-13T11:37:28.417Z,28.10
2019-05-13T11:39:59.009Z,28.00
2019-05-13T11:42:32.556Z,28.00
2019-05-13T11:45:02.487Z,28.10
2019-05-13T11:47:33.405Z,28.00
2019-05-13T11:50:04.174Z,28.10
2019-05-13T11:52:35.342Z,28.10
2019-05-13T11:55:08.403Z,28.10
2019-05-13T11:57:39.070Z,28.10
2019-05-13T12:00:13.476Z,28.10
2019-05-13T12:02:50.661Z,28.10
2019-05-13T12:05:18.163Z,28.10
2019-05-13T12:07:48.961Z,28.10
2019-05-13T12:10:22.659Z,28.10
2019-05-13T12:12:52.171Z,28.20
2019-05-13T12:15:33.467Z,28.10
2019-05-13T12:17:54.906Z,28.10
2019-05-13T12:20:25.777Z,28.00
2019-05-13T12:22:56.476Z,28.00
2019-05-13T12:25:33.343Z,28.00
2019-05-13T12:28:03.313Z,28.00
2019-05-13T12:30:34.306Z,28.00
2019-05-13T12:33:05.613Z,28.00
2019-05-13T12:35:36.602Z,28.00
2019-05-13T12:38:07.461Z,28.00
2019-05-13T12:40:38.433Z,27.90
2019-05-13T12:43:12.619Z,27.90
2019-05-13T12:45:43.194Z,27.90
2019-05-13T12:48:14.262Z,27.90
2019-05-13T12:50:45.756Z,28.00
2019-05-13T12:53:16.941Z,27.90
2019-05-13T12:55:52.689Z,27.90
2019-05-13T12:58:23.302Z,27.90
2019-05-13T13:00:53.249Z,27.90
2019-05-13T13:03:24.615Z,27.90
2019-05-13T13:06:22.466Z,28.00
2019-05-13T13:08:42.863Z,28.00
2019-05-13T13:11:02.020Z,28.00
2019-05-13T13:13:54.001Z,28.10
2019-05-13T13:16:04.892Z,28.10
2019-05-13T13:18:35.715Z,28.10
2019-05-13T13:21:07.832Z,28.10
2019-05-13T13:23:38.777Z,28.10
2019-05-13T13:26:15.371Z,28.00
2019-05-13T13:28:43.354Z,28.00
2019-05-13T13:31:14.282Z,28.00
2019-05-13T13:33:45.516Z,28.00
2019-05-13T13:36:17.401Z,28.00
2019-05-13T13:38:48.411Z,28.00
2019-05-13T13:41:22.739Z,28.00
2019-05-13T13:43:54.344Z,28.00
2019-05-13T13:46:36.315Z,28.00
2019-05-13T13:48:58.428Z,28.00
2019-05-13T13:51:34.031Z,28.10
2019-05-13T13:54:01.401Z,28.00
2019-05-13T13:56:32.745Z,28.10
2019-05-13T13:59:04.350Z,28.10
2019-05-13T14:01:35.597Z,28.10
2019-05-13T14:04:06.525Z,28.10
2019-05-13T14:09:11.899Z,28.20
2019-05-13T14:11:42.121Z,28.10
2019-05-13T14:14:12.766Z,28.10
2019-05-13T14:16:46.509Z,28.20
2019-05-13T14:19:15.737Z,28.20
2019-05-13T14:21:47.143Z,28.20
2019-05-13T14:24:18.003Z,28.20
2019-05-13T14:26:49.046Z,28.20
2019-05-13T14:29:22.605Z,28.20
2019-05-13T14:31:52.218Z,28.20
2019-05-13T14:34:23.049Z,28.10
2019-05-13T14:36:53.754Z,28.10
2019-05-13T14:39:24.629Z,28.10
2019-05-13T14:41:55.237Z,28.10
2019-05-13T14:44:26.059Z,28.10
2019-05-13T14:46:56.672Z,28.10
2019-05-13T14:49:31.483Z,28.10
2019-05-13T14:52:03.068Z,28.10
2019-05-13T14:54:36.251Z,28.10
2019-05-13T14:57:11.739Z,28.00
2019-05-13T14:59:41.433Z,28.00
2019-05-13T15:02:12.305Z,28.00
2019-05-13T15:04:43.281Z,28.00
2019-05-13T15:07:14.540Z,28.00
2019-05-13T15:09:45.423Z,28.00
2019-05-13T15:12:21.430Z,28.00
2019-05-13T15:14:52.399Z,28.00
2019-05-13T15:17:23.435Z,28.00
2019-05-13T15:19:54.332Z,28.00
2019-05-13T15:22:25.248Z,28.00
2019-05-13T15:24:56.029Z,28.00
2019-05-13T15:27:27.059Z,27.90
2019-05-13T15:30:12.519Z,27.90
2019-05-13T15:32:32.587Z,27.90
2019-05-13T15:35:02.422Z,27.80
2019-05-13T15:37:33.347Z,27.80
2019-05-13T15:40:04.253Z,27.80
2019-05-13T15:42:35.114Z,27.80
2019-05-13T15:45:07.787Z,27.80
2019-05-13T15:47:38.778Z,27.80
2019-05-13T15:50:12.091Z,27.80
2019-05-13T15:52:43.162Z,27.80
2019-05-13T15:55:14.802Z,27.80
2019-05-13T15:57:45.933Z,27.80
2019-05-13T16:00:17.066Z,27.80
2019-05-13T16:02:47.978Z,27.80
2019-05-13T16:05:18.772Z,27.70
2019-05-13T16:07:52.334Z,27.70
2019-05-13T16:10:23.451Z,27.70
2019-05-13T16:12:54.370Z,27.70
2019-05-13T16:15:25.226Z,27.60
2019-05-13T16:17:56.063Z,27.50
2019-05-13T16:20:26.737Z,27.50
2019-05-13T16:22:57.731Z,27.40
2019-05-13T16:25:28.863Z,27.40
2019-05-13T16:28:01.338Z,27.30
2019-05-13T16:30:32.325Z,27.30
2019-05-13T16:33:03.402Z,27.30
2019-05-13T16:35:34.828Z,27.30
2019-05-13T16:38:05.862Z,27.30
2019-05-13T16:40:36.908Z,27.30
2019-05-13T16:43:08.039Z,27.30
2019-05-13T16:45:38.974Z,27.30
2019-05-13T16:48:12.319Z,27.30
2019-05-13T16:50:43.300Z,27.30
2019-05-13T16:53:14.159Z,27.30
2019-05-13T16:55:45.242Z,27.30
2019-05-13T16:58:16.107Z,27.30
2019-05-13T17:00:47.553Z,27.30
2019-05-13T17:03:18.462Z,27.30
2019-05-13T17:05:51.241Z,27.30
2019-05-13T17:08:21.466Z,27.30
2019-05-13T17:10:52.410Z,27.30
2019-05-13T17:13:23.258Z,27.30
2019-05-13T17:15:54.217Z,27.20
2019-05-13T17:18:25.020Z,27.20
2019-05-13T17:20:55.718Z,27.20
2019-05-13T17:23:26.414Z,27.20
2019-05-13T17:25:58.439Z,27.20
2019-05-13T17:28:30.881Z,27.20
2019-05-13T17:31:02.204Z,27.20
2019-05-13T17:33:33.130Z,27.20
2019-05-13T17:36:04.139Z,27.20
2019-05-13T17:38:34.855Z,27.20
2019-05-13T17:41:06.478Z,27.20
2019-05-13T17:43:41.181Z,27.20
2019-05-13T17:46:11.545Z,27.20
2019-05-13T17:48:42.262Z,27.20
2019-05-13T17:51:16.156Z,27.20
2019-05-13T17:53:45.461Z,27.20
2019-05-13T17:56:16.280Z,27.20
2019-05-13T17:58:47.089Z,27.20
2019-05-13T18:01:18.048Z,27.20
2019-05-13T18:03:48.973Z,27.20
2019-05-13T18:06:19.827Z,27.20
2019-05-13T18:08:51.758Z,27.20
2019-05-13T18:11:22.676Z,27.20
2019-05-13T18:13:53.528Z,27.20
2019-05-13T18:16:24.251Z,27.10
2019-05-13T18:18:56.049Z,27.10
2019-05-13T18:21:26.921Z,27.10
2019-05-13T18:23:57.948Z,27.10
2019-05-13T18:26:28.792Z,27.10
2019-05-13T18:29:01.793Z,27.00
2019-05-13T18:31:31.483Z,27.00
2019-05-13T18:34:03.408Z,27.00
2019-05-13T18:36:34.948Z,27.00
2019-05-13T18:39:06.814Z,27.00
2019-05-13T18:41:37.726Z,27.00
2019-05-13T18:44:08.601Z,27.00
2019-05-13T18:46:41.450Z,27.00
2019-05-13T18:49:11.977Z,27.00
2019-05-13T18:51:43.174Z,27.00
2019-05-13T18:54:14.122Z,27.00
2019-05-13T18:56:48.301Z,26.90
2019-05-13T18:59:21.318Z,26.90
2019-05-13T19:01:52.911Z,26.90
2019-05-13T19:04:23.551Z,26.90
2019-05-13T19:06:54.630Z,26.90
2019-05-13T19:09:25.534Z,26.90
2019-05-13T19:11:56.196Z,26.90
2019-05-13T19:14:27.084Z,26.90
2019-05-13T19:16:58.007Z,26.90
2019-05-13T19:19:28.951Z,26.90
2019-05-13T19:22:01.922Z,26.90
2019-05-13T19:24:31.958Z,26.90
2019-05-13T19:27:02.915Z,26.90
2019-05-13T19:29:33.739Z,26.90
2019-05-13T19:32:04.600Z,26.90
2019-05-13T19:34:35.291Z,26.90
2019-05-13T19:37:06.232Z,27.00
2019-05-13T19:39:36.921Z,27.00
2019-05-13T19:42:07.683Z,27.00
2019-05-13T19:44:38.554Z,27.00
2019-05-13T19:47:09.364Z,27.00
2019-05-13T19:49:44.174Z,27.00
2019-05-13T19:52:12.737Z,27.00
2019-05-13T19:54:43.613Z,27.00
2019-05-13T19:57:14.551Z,27.00
2019-05-13T19:59:45.506Z,27.00
2019-05-13T20:02:16.333Z,27.00
2019-05-13T20:04:47.050Z,27.10
2019-05-13T20:07:17.930Z,27.10
2019-05-13T20:09:48.719Z,27.00
2019-05-13T20:12:21.218Z,27.00
2019-05-13T20:14:51.932Z,27.00
2019-05-13T20:17:22.778Z,27.00
2019-05-13T20:19:53.737Z,27.00
2019-05-13T20:22:24.690Z,27.00
2019-05-13T20:24:55.458Z,27.00
2019-05-13T20:27:26.372Z,27.00
2019-05-13T20:29:57.141Z,27.00
2019-05-13T20:32:28.053Z,27.00
2019-05-13T20:34:58.965Z,27.00
2019-05-13T20:37:31.981Z,27.00
2019-05-13T20:40:02.419Z,27.00
2019-05-13T20:42:33.536Z,27.00
2019-05-13T20:45:04.334Z,26.90
2019-05-13T20:47:35.266Z,27.00
2019-05-13T20:50:08.702Z,26.90
2019-05-13T20:52:41.892Z,26.90
2019-05-13T20:55:11.851Z,26.90
2019-05-13T20:57:42.709Z,26.90
2019-05-13T21:00:13.878Z,26.90
2019-05-13T21:02:44.795Z,26.90
2019-05-13T21:05:15.868Z,26.90
2019-05-13T21:07:46.805Z,26.90
2019-05-13T21:10:17.749Z,26.90
2019-05-13T21:12:48.577Z,26.90
2019-05-13T21:15:19.437Z,26.90
2019-05-13T21:17:51.550Z,26.90
2019-05-13T21:20:25.734Z,26.80
2019-05-13T21:22:54.862Z,26.80
2019-05-13T21:25:25.637Z,26.70
2019-05-13T21:27:56.562Z,26.70
2019-05-13T21:30:27.527Z,26.80
2019-05-13T21:32:58.857Z,26.80
2019-05-13T21:35:31.682Z,26.80
2019-05-13T21:38:02.710Z,26.80
2019-05-13T21:40:33.613Z,26.80
2019-05-13T21:43:04.284Z,26.80
2019-05-13T21:45:37.397Z,26.90
2019-05-13T21:48:10.908Z,26.90
2019-05-13T21:50:41.385Z,26.90
2019-05-13T21:53:12.583Z,26.90
2019-05-13T21:55:43.461Z,26.90
2019-05-13T21:58:14.338Z,26.90
2019-05-13T22:00:46.613Z,26.90
2019-05-13T22:03:17.286Z,26.90
2019-05-13T22:05:48.110Z,26.90
2019-05-13T22:08:21.398Z,26.80
2019-05-13T22:10:52.457Z,26.80
2019-05-13T22:13:23.357Z,26.90
2019-05-13T22:15:54.018Z,26.80
2019-05-13T22:18:25.115Z,26.80
2019-05-13T22:20:56.039Z,26.70
2019-05-13T22:23:26.832Z,26.70
2019-05-13T22:25:57.741Z,26.70
2019-05-13T22:28:28.600Z,26.60
